Airfield :
LOGIN :

Register | Disclaimer

   EN    FR    IT 

 










Legend :    VFR   Marginal VFR   IFR   Intensive IFR   Very Intensive IFR
Visi :
Ceiling :
>= 8 km
>= 3000ft
5 to 8 km
1000 to 3000 ft
1500m to 5 km
500 to 1000 ft
800 to 1500m
200 to 500 ft
< 800m
< 200 ft
Symbols :   Thunderstorms  Fog  Heavy snow  Heavy precipitations  Wind > 20 kt
SIGMETs :     Misc.  Thunderstorms  Icing  Turbulence  Mountain Waves  Volcanic Ashes






- Airport Elevation : 495 ft
- IATA code : BUD


LHBP - Budapest Ferihegy

CURRENT METAR :
  • 210530Z 25005KT 220V280 0350 R13R/0550N R13L/0600U -FZDZ FZFG VV001 M02/M02 Q1044 NOSIG

EXPIRED METARs :
  • 210500Z 24005KT 190V270 0300 R13R/0500N R13L/0450N -FZDZ FZFG VV001 M02/M02 Q1044 NOSIG
  • 210430Z 24004KT 0300 R13R/0500N R13L/0400N -FZDZ FZFG VV001 M02/M02 Q1044 NOSIG
  • 210400Z 25003KT 220V290 0200 R31L/0450N R31R/0500N -FZDZ FZFG VV001 M02/M03 Q1045 NOSIG
  • 210330Z VRB02KT 0300 R31L/0500N R31R/0550N -FZDZ FZFG VV001 M03/M03 Q1045 NOSIG
  • 210300Z 25004KT 220V280 0350 R31L/0550N R31R/0550N -FZDZ FZFG VV001 M02/M03 Q1045 NOSIG

TAF TAF LHBP
Valid from the 21 at 06:00 until the 22 at 06:00 UTC


210515Z 2106/2206 VRB03KT 1200 BCFG BR SCT007
TEMPO 2106/2109 0300 -FZDZ FZFG VV001
BECMG 2106/2109 24006KT
BECMG 2109/2111 3000 BR BKN004
TEMPO 2118/2206 0500 FZFG OVC002



MET'MAP, your aeronautical weather chart ! - Copyright ORBIFLY December 2007 - Disclaimer

ORBIFLY MET'MAP TEAM :

Programming & Development : Alexandra Zaïnal
Concept & original design : Baudouin d'Aumeries
Assistance for programming : Marc-Olivier Méhu
Technical & hardware support : Manuel Goepfert

Contact : metmap@orbifly.com




SOURCES & CREDITS :

   NOAA